sensor_id;sensor_type;location;lat;lon;timestamp;pressure;altitude;pressure_sealevel;temperature;humidity
41102;BME280;26845;50.190;19.178;2023-12-04T00:01:34;99306.38;;;-4.99;100.00
41102;BME280;26845;50.190;19.178;2023-12-04T00:04:01;99311.70;;;-4.97;100.00
41102;BME280;26845;50.190;19.178;2023-12-04T00:06:27;99306.73;;;-4.97;100.00
41102;BME280;26845;50.190;19.178;2023-12-04T00:08:53;99308.95;;;-5.00;100.00
41102;BME280;26845;50.190;19.178;2023-12-04T00:11:19;99307.41;;;-4.98;100.00
41102;BME280;26845;50.190;19.178;2023-12-04T00:13:45;99310.42;;;-4.94;100.00
41102;BME280;26845;50.190;19.178;2023-12-04T00:16:11;99311.30;;;-4.91;100.00
41102;BME280;26845;50.190;19.178;2023-12-04T00:18:37;99316.03;;;-4.88;100.00
41102;BME280;26845;50.190;19.178;2023-12-04T00:21:04;99311.84;;;-4.81;100.00
41102;BME280;26845;50.190;19.178;2023-12-04T00:23:29;99311.60;;;-4.74;100.00
41102;BME280;26845;50.190;19.178;2023-12-04T00:25:55;99314.50;;;-4.71;100.00
41102;BME280;26845;50.190;19.178;2023-12-04T00:28:21;99314.58;;;-4.72;100.00
41102;BME280;26845;50.190;19.178;2023-12-04T00:30:46;99313.83;;;-4.73;100.00
41102;BME280;26845;50.190;19.178;2023-12-04T00:33:12;99314.15;;;-4.76;100.00
41102;BME280;26845;50.190;19.178;2023-12-04T00:35:38;99313.60;;;-4.73;100.00
41102;BME280;26845;50.190;19.178;2023-12-04T00:38:03;99309.39;;;-4.71;100.00
41102;BME280;26845;50.190;19.178;2023-12-04T00:40:30;99310.68;;;-4.74;100.00
41102;BME280;26845;50.190;19.178;2023-12-04T00:42:56;99312.10;;;-4.73;100.00
41102;BME280;26845;50.190;19.178;2023-12-04T00:45:22;99308.60;;;-4.76;100.00
41102;BME280;26845;50.190;19.178;2023-12-04T00:47:48;99305.38;;;-4.80;100.00
41102;BME280;26845;50.190;19.178;2023-12-04T00:50:14;99302.91;;;-4.83;100.00
41102;BME280;26845;50.190;19.178;2023-12-04T00:52:39;99307.45;;;-4.86;100.00
41102;BME280;26845;50.190;19.178;2023-12-04T00:55:05;99307.02;;;-4.91;100.00
41102;BME280;26845;50.190;19.178;2023-12-04T00:57:31;99306.79;;;-4.96;100.00
41102;BME280;26845;50.190;19.178;2023-12-04T00:59:57;99310.11;;;-5.00;100.00
41102;BME280;26845;50.190;19.178;2023-12-04T01:02:24;99307.86;;;-5.03;100.00
41102;BME280;26845;50.190;19.178;2023-12-04T01:04:49;99309.22;;;-5.05;100.00
41102;BME280;26845;50.190;19.178;2023-12-04T01:07:15;99306.84;;;-5.09;100.00
41102;BME280;26845;50.190;19.178;2023-12-04T01:09:41;99307.86;;;-5.12;100.00
41102;BME280;26845;50.190;19.178;2023-12-04T01:12:07;99311.70;;;-5.14;100.00
41102;BME280;26845;50.190;19.178;2023-12-04T01:14:33;99315.65;;;-5.15;100.00
41102;BME280;26845;50.190;19.178;2023-12-04T01:16:58;99311.80;;;-5.16;100.00
41102;BME280;26845;50.190;19.178;2023-12-04T01:19:24;99311.02;;;-5.16;100.00
41102;BME280;26845;50.190;19.178;2023-12-04T01:21:50;99317.89;;;-5.16;100.00
41102;BME280;26845;50.190;19.178;2023-12-04T01:24:16;99324.65;;;-5.16;100.00
41102;BME280;26845;50.190;19.178;2023-12-04T01:26:42;99329.17;;;-5.14;100.00
41102;BME280;26845;50.190;19.178;2023-12-04T01:29:07;99334.06;;;-5.08;100.00
41102;BME280;26845;50.190;19.178;2023-12-04T01:31:34;99332.56;;;-5.01;100.00
41102;BME280;26845;50.190;19.178;2023-12-04T01:34:00;99339.66;;;-4.95;100.00
41102;BME280;26845;50.190;19.178;2023-12-04T01:36:25;99341.40;;;-4.86;100.00
41102;BME280;26845;50.190;19.178;2023-12-04T01:38:51;99339.05;;;-4.77;100.00
41102;BME280;26845;50.190;19.178;2023-12-04T01:41:17;99338.48;;;-4.68;100.00
41102;BME280;26845;50.190;19.178;2023-12-04T01:43:43;99336.57;;;-4.63;100.00
41102;BME280;26845;50.190;19.178;2023-12-04T01:46:09;99334.54;;;-4.60;100.00
41102;BME280;26845;50.190;19.178;2023-12-04T01:48:37;99332.71;;;-4.59;100.00
41102;BME280;26845;50.190;19.178;2023-12-04T01:51:07;99334.71;;;-4.60;100.00
41102;BME280;26845;50.190;19.178;2023-12-04T01:53:36;99333.11;;;-4.66;100.00
41102;BME280;26845;50.190;19.178;2023-12-04T01:56:04;99337.38;;;-4.78;100.00
41102;BME280;26845;50.190;19.178;2023-12-04T01:58:30;99335.63;;;-4.91;99.97
41102;BME280;26845;50.190;19.178;2023-12-04T02:00:57;99332.88;;;-5.02;100.00
41102;BME280;26845;50.190;19.178;2023-12-04T02:03:23;99333.02;;;-5.18;100.00
41102;BME280;26845;50.190;19.178;2023-12-04T02:05:51;99334.00;;;-5.26;100.00
41102;BME280;26845;50.190;19.178;2023-12-04T02:08:16;99333.58;;;-5.28;100.00
41102;BME280;26845;50.190;19.178;2023-12-04T02:10:42;99328.20;;;-5.27;100.00
41102;BME280;26845;50.190;19.178;2023-12-04T02:13:08;99328.88;;;-5.32;100.00
41102;BME280;26845;50.190;19.178;2023-12-04T02:15:35;99330.13;;;-5.40;100.00
41102;BME280;26845;50.190;19.178;2023-12-04T02:18:03;99327.92;;;-5.47;100.00
41102;BME280;26845;50.190;19.178;2023-12-04T02:20:35;99331.14;;;-5.55;99.99
41102;BME280;26845;50.190;19.178;2023-12-04T02:23:04;99323.52;;;-5.61;100.00
41102;BME280;26845;50.190;19.178;2023-12-04T02:25:36;99321.56;;;-5.60;100.00
41102;BME280;26845;50.190;19.178;2023-12-04T02:28:05;99320.56;;;-5.61;100.00
41102;BME280;26845;50.190;19.178;2023-12-04T02:30:34;99323.70;;;-5.64;99.95
41102;BME280;26845;50.190;19.178;2023-12-04T02:33:05;99324.12;;;-5.73;99.94
41102;BME280;26845;50.190;19.178;2023-12-04T02:35:34;99320.79;;;-5.78;99.98
41102;BME280;26845;50.190;19.178;2023-12-04T02:38:01;99317.33;;;-5.79;100.00
41102;BME280;26845;50.190;19.178;2023-12-04T02:40:26;99315.73;;;-5.81;100.00
41102;BME280;26845;50.190;19.178;2023-12-04T02:42:52;99315.52;;;-5.83;99.95
41102;BME280;26845;50.190;19.178;2023-12-04T02:45:18;99320.13;;;-5.85;100.00
41102;BME280;26845;50.190;19.178;2023-12-04T02:47:43;99322.27;;;-5.88;99.97
41102;BME280;26845;50.190;19.178;2023-12-04T02:50:10;99317.04;;;-5.96;99.88
41102;BME280;26845;50.190;19.178;2023-12-04T02:52:35;99322.34;;;-6.00;99.93
41102;BME280;26845;50.190;19.178;2023-12-04T02:55:01;99321.86;;;-6.03;99.84
41102;BME280;26845;50.190;19.178;2023-12-04T02:57:26;99325.48;;;-6.04;99.92
41102;BME280;26845;50.190;19.178;2023-12-04T02:59:52;99331.29;;;-6.07;99.66
41102;BME280;26845;50.190;19.178;2023-12-04T03:02:18;99336.00;;;-6.11;99.91
41102;BME280;26845;50.190;19.178;2023-12-04T03:04:45;99341.61;;;-6.18;99.58
41102;BME280;26845;50.190;19.178;2023-12-04T03:07:11;99338.09;;;-6.24;99.67
41102;BME280;26845;50.190;19.178;2023-12-04T03:09:37;99338.05;;;-6.35;99.18
41102;BME280;26845;50.190;19.178;2023-12-04T03:12:03;99342.17;;;-6.38;99.86
41102;BME280;26845;50.190;19.178;2023-12-04T03:14:29;99341.34;;;-6.34;100.00
41102;BME280;26845;50.190;19.178;2023-12-04T03:16:54;99334.49;;;-6.28;100.00
41102;BME280;26845;50.190;19.178;2023-12-04T03:19:20;99328.61;;;-6.24;100.00
41102;BME280;26845;50.190;19.178;2023-12-04T03:21:46;99325.02;;;-6.21;100.00
41102;BME280;26845;50.190;19.178;2023-12-04T03:24:12;99323.67;;;-6.23;100.00
41102;BME280;26845;50.190;19.178;2023-12-04T03:26:38;99326.24;;;-6.23;100.00
41102;BME280;26845;50.190;19.178;2023-12-04T03:29:03;99324.26;;;-6.22;100.00
41102;BME280;26845;50.190;19.178;2023-12-04T03:31:29;99325.46;;;-6.21;100.00
41102;BME280;26845;50.190;19.178;2023-12-04T03:33:57;99320.61;;;-6.16;100.00
41102;BME280;26845;50.190;19.178;2023-12-04T03:36:23;99323.19;;;-6.15;100.00
41102;BME280;26845;50.190;19.178;2023-12-04T03:38:48;99324.33;;;-6.14;100.00
41102;BME280;26845;50.190;19.178;2023-12-04T03:41:15;99328.45;;;-6.12;100.00
41102;BME280;26845;50.190;19.178;2023-12-04T03:43:41;99331.71;;;-6.11;100.00
41102;BME280;26845;50.190;19.178;2023-12-04T03:46:07;99337.31;;;-6.13;100.00
41102;BME280;26845;50.190;19.178;2023-12-04T03:48:32;99339.02;;;-6.08;100.00
41102;BME280;26845;50.190;19.178;2023-12-04T03:50:58;99341.21;;;-6.08;100.00
41102;BME280;26845;50.190;19.178;2023-12-04T03:53:25;99346.08;;;-6.09;100.00
41102;BME280;26845;50.190;19.178;2023-12-04T03:55:52;99346.80;;;-6.04;100.00
41102;BME280;26845;50.190;19.178;2023-12-04T03:58:18;99351.30;;;-5.98;100.00
41102;BME280;26845;50.190;19.178;2023-12-04T04:00:43;99357.91;;;-5.92;100.00
41102;BME280;26845;50.190;19.178;2023-12-04T04:03:10;99362.45;;;-5.89;100.00
41102;BME280;26845;50.190;19.178;2023-12-04T04:05:35;99361.08;;;-5.84;100.00
41102;BME280;26845;50.190;19.178;2023-12-04T04:08:02;99360.23;;;-5.80;100.00
41102;BME280;26845;50.190;19.178;2023-12-04T04:10:27;99363.02;;;-5.74;100.00
41102;BME280;26845;50.190;19.178;2023-12-04T04:12:53;99366.33;;;-5.70;100.00
41102;BME280;26845;50.190;19.178;2023-12-04T04:15:18;99363.57;;;-5.66;100.00
41102;BME280;26845;50.190;19.178;2023-12-04T04:17:44;99360.52;;;-5.63;100.00
41102;BME280;26845;50.190;19.178;2023-12-04T04:20:10;99361.04;;;-5.58;100.00
41102;BME280;26845;50.190;19.178;2023-12-04T04:22:37;99358.81;;;-5.54;100.00
41102;BME280;26845;50.190;19.178;2023-12-04T04:25:07;99358.10;;;-5.50;100.00
41102;BME280;26845;50.190;19.178;2023-12-04T04:27:33;99358.35;;;-5.49;100.00
41102;BME280;26845;50.190;19.178;2023-12-04T04:29:58;99356.86;;;-5.53;100.00
41102;BME280;26845;50.190;19.178;2023-12-04T04:32:24;99362.55;;;-5.55;100.00
41102;BME280;26845;50.190;19.178;2023-12-04T04:34:50;99358.96;;;-5.58;100.00
41102;BME280;26845;50.190;19.178;2023-12-04T04:37:16;99355.45;;;-5.58;100.00
41102;BME280;26845;50.190;19.178;2023-12-04T04:39:43;99356.14;;;-5.61;100.00
41102;BME280;26845;50.190;19.178;2023-12-04T04:42:08;99358.75;;;-5.65;100.00
41102;BME280;26845;50.190;19.178;2023-12-04T04:44:34;99356.95;;;-5.66;100.00
41102;BME280;26845;50.190;19.178;2023-12-04T04:47:01;99358.27;;;-5.69;100.00
41102;BME280;26845;50.190;19.178;2023-12-04T04:49:28;99360.70;;;-5.71;100.00
41102;BME280;26845;50.190;19.178;2023-12-04T04:51:54;99360.08;;;-5.72;100.00
41102;BME280;26845;50.190;19.178;2023-12-04T04:54:20;99361.55;;;-5.71;100.00
41102;BME280;26845;50.190;19.178;2023-12-04T04:56:46;99363.13;;;-5.72;100.00
41102;BME280;26845;50.190;19.178;2023-12-04T04:59:12;99364.59;;;-5.76;100.00
41102;BME280;26845;50.190;19.178;2023-12-04T05:01:38;99364.78;;;-5.78;100.00
41102;BME280;26845;50.190;19.178;2023-12-04T05:04:05;99360.81;;;-5.79;100.00
41102;BME280;26845;50.190;19.178;2023-12-04T05:06:30;99361.77;;;-5.82;100.00
41102;BME280;26845;50.190;19.178;2023-12-04T05:08:56;99360.11;;;-5.85;100.00
41102;BME280;26845;50.190;19.178;2023-12-04T05:11:22;99361.33;;;-5.86;100.00
41102;BME280;26845;50.190;19.178;2023-12-04T05:13:50;99361.09;;;-5.89;100.00
41102;BME280;26845;50.190;19.178;2023-12-04T05:16:16;99357.70;;;-5.89;100.00
41102;BME280;26845;50.190;19.178;2023-12-04T05:18:43;99354.95;;;-5.85;100.00
41102;BME280;26845;50.190;19.178;2023-12-04T05:21:09;99351.91;;;-5.83;100.00
41102;BME280;26845;50.190;19.178;2023-12-04T05:23:36;99350.20;;;-5.84;100.00
41102;BME280;26845;50.190;19.178;2023-12-04T05:26:03;99352.80;;;-5.83;100.00
41102;BME280;26845;50.190;19.178;2023-12-04T05:28:29;99354.87;;;-5.83;100.00
41102;BME280;26845;50.190;19.178;2023-12-04T05:30:55;99354.42;;;-5.83;100.00
41102;BME280;26845;50.190;19.178;2023-12-04T05:33:20;99350.70;;;-5.84;100.00
41102;BME280;26845;50.190;19.178;2023-12-04T05:35:48;99352.70;;;-5.84;100.00
41102;BME280;26845;50.190;19.178;2023-12-04T05:38:13;99354.13;;;-5.83;100.00
41102;BME280;26845;50.190;19.178;2023-12-04T05:40:39;99357.84;;;-5.81;100.00
41102;BME280;26845;50.190;19.178;2023-12-04T05:43:05;99355.13;;;-5.82;100.00
41102;BME280;26845;50.190;19.178;2023-12-04T05:45:31;99353.15;;;-5.80;100.00
41102;BME280;26845;50.190;19.178;2023-12-04T05:47:57;99356.32;;;-5.75;100.00
41102;BME280;26845;50.190;19.178;2023-12-04T05:50:22;99354.45;;;-5.74;100.00
41102;BME280;26845;50.190;19.178;2023-12-04T05:52:48;99355.00;;;-5.77;100.00
41102;BME280;26845;50.190;19.178;2023-12-04T05:55:14;99353.86;;;-5.74;100.00
41102;BME280;26845;50.190;19.178;2023-12-04T05:57:39;99350.56;;;-5.70;100.00
41102;BME280;26845;50.190;19.178;2023-12-04T06:00:10;99345.88;;;-5.64;100.00
41102;BME280;26845;50.190;19.178;2023-12-04T06:02:42;99337.96;;;-5.56;100.00
41102;BME280;26845;50.190;19.178;2023-12-04T06:05:08;99337.75;;;-5.49;100.00
41102;BME280;26845;50.190;19.178;2023-12-04T06:07:35;99340.13;;;-5.49;100.00
41102;BME280;26845;50.190;19.178;2023-12-04T06:10:01;99337.05;;;-5.55;100.00
41102;BME280;26845;50.190;19.178;2023-12-04T06:12:26;99338.06;;;-5.60;100.00
41102;BME280;26845;50.190;19.178;2023-12-04T06:14:53;99339.17;;;-5.62;100.00
41102;BME280;26845;50.190;19.178;2023-12-04T06:17:19;99338.83;;;-5.72;100.00
41102;BME280;26845;50.190;19.178;2023-12-04T06:19:46;99343.82;;;-5.80;100.00
41102;BME280;26845;50.190;19.178;2023-12-04T06:22:11;99340.77;;;-5.88;100.00
41102;BME280;26845;50.190;19.178;2023-12-04T06:24:38;99339.59;;;-5.91;100.00
41102;BME280;26845;50.190;19.178;2023-12-04T06:27:04;99340.92;;;-5.94;100.00
41102;BME280;26845;50.190;19.178;2023-12-04T06:29:34;99342.64;;;-5.92;100.00
41102;BME280;26845;50.190;19.178;2023-12-04T06:32:01;99343.46;;;-5.93;100.00
41102;BME280;26845;50.190;19.178;2023-12-04T06:34:27;99342.27;;;-5.97;100.00
41102;BME280;26845;50.190;19.178;2023-12-04T06:36:55;99340.77;;;-5.96;100.00
41102;BME280;26845;50.190;19.178;2023-12-04T06:39:22;99339.33;;;-5.90;100.00
41102;BME280;26845;50.190;19.178;2023-12-04T06:41:49;99341.52;;;-5.88;100.00
41102;BME280;26845;50.190;19.178;2023-12-04T06:44:16;99338.95;;;-5.87;100.00
41102;BME280;26845;50.190;19.178;2023-12-04T06:46:43;99338.48;;;-5.88;100.00
41102;BME280;26845;50.190;19.178;2023-12-04T06:49:16;99334.39;;;-5.87;100.00
41102;BME280;26845;50.190;19.178;2023-12-04T06:51:43;99339.61;;;-5.85;100.00
41102;BME280;26845;50.190;19.178;2023-12-04T06:54:09;99339.90;;;-5.86;100.00
41102;BME280;26845;50.190;19.178;2023-12-04T06:56:38;99337.73;;;-5.89;100.00
41102;BME280;26845;50.190;19.178;2023-12-04T06:59:03;99331.54;;;-5.86;100.00
41102;BME280;26845;50.190;19.178;2023-12-04T07:01:29;99331.42;;;-5.83;100.00
41102;BME280;26845;50.190;19.178;2023-12-04T07:03:55;99335.88;;;-5.79;100.00
41102;BME280;26845;50.190;19.178;2023-12-04T07:06:21;99333.63;;;-5.71;100.00
41102;BME280;26845;50.190;19.178;2023-12-04T07:08:47;99336.10;;;-5.62;100.00
41102;BME280;26845;50.190;19.178;2023-12-04T07:11:13;99340.08;;;-5.60;100.00
41102;BME280;26845;50.190;19.178;2023-12-04T07:13:42;99345.30;;;-5.68;99.96
41102;BME280;26845;50.190;19.178;2023-12-04T07:16:08;99340.33;;;-5.78;99.80
41102;BME280;26845;50.190;19.178;2023-12-04T07:18:39;99343.04;;;-5.83;99.93
41102;BME280;26845;50.190;19.178;2023-12-04T07:21:05;99344.52;;;-5.91;99.61
41102;BME280;26845;50.190;19.178;2023-12-04T07:23:31;99346.08;;;-5.99;99.79
41102;BME280;26845;50.190;19.178;2023-12-04T07:25:56;99348.32;;;-6.01;99.94
41102;BME280;26845;50.190;19.178;2023-12-04T07:28:22;99345.09;;;-6.04;99.69
41102;BME280;26845;50.190;19.178;2023-12-04T07:30:47;99348.34;;;-6.10;99.05
41102;BME280;26845;50.190;19.178;2023-12-04T07:33:13;99347.52;;;-6.12;99.40
41102;BME280;26845;50.190;19.178;2023-12-04T07:35:39;99354.31;;;-6.11;99.54
41102;BME280;26845;50.190;19.178;2023-12-04T07:38:05;99354.33;;;-6.04;99.88
41102;BME280;26845;50.190;19.178;2023-12-04T07:40:31;99354.62;;;-6.01;99.94
41102;BME280;26845;50.190;19.178;2023-12-04T07:42:57;99353.72;;;-5.97;99.98
41102;BME280;26845;50.190;19.178;2023-12-04T07:45:23;99355.38;;;-5.94;99.79
41102;BME280;26845;50.190;19.178;2023-12-04T07:47:49;99358.11;;;-5.93;99.80
41102;BME280;26845;50.190;19.178;2023-12-04T07:50:16;99352.27;;;-5.93;99.60
41102;BME280;26845;50.190;19.178;2023-12-04T07:52:42;99349.52;;;-5.88;99.63
41102;BME280;26845;50.190;19.178;2023-12-04T07:55:08;99355.67;;;-5.82;99.66
41102;BME280;26845;50.190;19.178;2023-12-04T07:57:34;99357.55;;;-5.75;99.81
41102;BME280;26845;50.190;19.178;2023-12-04T08:00:00;99353.77;;;-5.68;99.73
41102;BME280;26845;50.190;19.178;2023-12-04T08:02:25;99350.09;;;-5.59;99.91
41102;BME280;26845;50.190;19.178;2023-12-04T08:04:51;99342.52;;;-5.49;99.99
41102;BME280;26845;50.190;19.178;2023-12-04T08:07:19;99344.13;;;-5.43;99.90
41102;BME280;26845;50.190;19.178;2023-12-04T08:09:44;99342.20;;;-5.37;99.86
41102;BME280;26845;50.190;19.178;2023-12-04T08:12:10;99341.98;;;-5.31;99.88
41102;BME280;26845;50.190;19.178;2023-12-04T08:14:36;99345.02;;;-5.31;99.70
41102;BME280;26845;50.190;19.178;2023-12-04T08:17:01;99344.63;;;-5.35;99.41
41102;BME280;26845;50.190;19.178;2023-12-04T08:19:27;99345.20;;;-5.31;99.62
41102;BME280;26845;50.190;19.178;2023-12-04T08:21:52;99341.45;;;-5.25;99.75
41102;BME280;26845;50.190;19.178;2023-12-04T08:24:18;99341.06;;;-5.19;100.00
41102;BME280;26845;50.190;19.178;2023-12-04T08:26:47;99342.77;;;-5.11;99.92
41102;BME280;26845;50.190;19.178;2023-12-04T08:29:13;99345.03;;;-5.00;99.97
41102;BME280;26845;50.190;19.178;2023-12-04T08:31:39;99348.79;;;-4.87;99.99
41102;BME280;26845;50.190;19.178;2023-12-04T08:34:05;99346.70;;;-4.69;100.00
41102;BME280;26845;50.190;19.178;2023-12-04T08:36:30;99344.48;;;-4.48;100.00
41102;BME280;26845;50.190;19.178;2023-12-04T08:38:56;99343.68;;;-4.27;100.00
41102;BME280;26845;50.190;19.178;2023-12-04T08:41:21;99347.94;;;-3.94;100.00
41102;BME280;26845;50.190;19.178;2023-12-04T08:43:47;99346.59;;;-3.48;100.00
41102;BME280;26845;50.190;19.178;2023-12-04T08:46:14;99351.11;;;-3.36;100.00
41102;BME280;26845;50.190;19.178;2023-12-04T08:48:41;99346.98;;;-3.22;100.00
41102;BME280;26845;50.190;19.178;2023-12-04T08:51:07;99348.71;;;-3.13;100.00
41102;BME280;26845;50.190;19.178;2023-12-04T08:53:36;99350.44;;;-3.04;100.00
41102;BME280;26845;50.190;19.178;2023-12-04T08:56:02;99347.89;;;-2.95;100.00
41102;BME280;26845;50.190;19.178;2023-12-04T08:58:28;99345.67;;;-2.88;99.99
41102;BME280;26845;50.190;19.178;2023-12-04T09:00:54;99348.50;;;-2.85;99.92
41102;BME280;26845;50.190;19.178;2023-12-04T09:03:20;99346.82;;;-2.82;99.91
41102;BME280;26845;50.190;19.178;2023-12-04T09:05:46;99348.67;;;-2.84;99.71
41102;BME280;26845;50.190;19.178;2023-12-04T09:08:15;99346.66;;;-2.90;99.44
41102;BME280;26845;50.190;19.178;2023-12-04T09:10:41;99348.46;;;-2.94;99.03
41102;BME280;26845;50.190;19.178;2023-12-04T09:13:07;99344.38;;;-3.05;99.06
41102;BME280;26845;50.190;19.178;2023-12-04T09:15:32;99341.61;;;-3.06;99.03
41102;BME280;26845;50.190;19.178;2023-12-04T09:17:58;99339.34;;;-3.03;99.60
41102;BME280;26845;50.190;19.178;2023-12-04T09:20:25;99340.02;;;-2.97;99.83
41102;BME280;26845;50.190;19.178;2023-12-04T09:22:51;99340.09;;;-2.94;99.91
41102;BME280;26845;50.190;19.178;2023-12-04T09:25:17;99335.89;;;-2.90;99.86
41102;BME280;26845;50.190;19.178;2023-12-04T09:27:43;99335.86;;;-2.92;99.62
41102;BME280;26845;50.190;19.178;2023-12-04T09:30:10;99329.59;;;-2.93;99.51
41102;BME280;26845;50.190;19.178;2023-12-04T09:32:36;99325.05;;;-2.89;99.87
41102;BME280;26845;50.190;19.178;2023-12-04T09:35:01;99320.48;;;-2.78;99.86
41102;BME280;26845;50.190;19.178;2023-12-04T09:37:27;99321.02;;;-2.64;99.95
41102;BME280;26845;50.190;19.178;2023-12-04T09:39:53;99315.35;;;-2.47;100.00
41102;BME280;26845;50.190;19.178;2023-12-04T09:42:19;99307.58;;;-2.28;99.90
41102;BME280;26845;50.190;19.178;2023-12-04T09:44:49;99302.03;;;-2.14;99.90
41102;BME280;26845;50.190;19.178;2023-12-04T09:47:18;99306.73;;;-1.97;99.62
41102;BME280;26845;50.190;19.178;2023-12-04T09:49:45;99294.33;;;-1.86;99.43
41102;BME280;26845;50.190;19.178;2023-12-04T09:52:11;99289.21;;;-1.73;99.80
41102;BME280;26845;50.190;19.178;2023-12-04T09:54:38;99285.73;;;-1.65;99.34
41102;BME280;26845;50.190;19.178;2023-12-04T09:57:07;99283.29;;;-1.57;99.31
41102;BME280;26845;50.190;19.178;2023-12-04T09:59:33;99279.50;;;-1.47;99.27
41102;BME280;26845;50.190;19.178;2023-12-04T10:02:02;99276.15;;;-1.49;97.98
41102;BME280;26845;50.190;19.178;2023-12-04T10:04:28;99277.48;;;-1.47;98.86
41102;BME280;26845;50.190;19.178;2023-12-04T10:06:54;99275.73;;;-1.34;99.00
41102;BME280;26845;50.190;19.178;2023-12-04T10:09:20;99273.46;;;-1.22;98.78
41102;BME280;26845;50.190;19.178;2023-12-04T10:11:50;99266.48;;;-1.09;98.78
41102;BME280;26845;50.190;19.178;2023-12-04T10:14:19;99267.46;;;-0.99;98.41
41102;BME280;26845;50.190;19.178;2023-12-04T10:16:46;99266.70;;;-0.88;98.34
41102;BME280;26845;50.190;19.178;2023-12-04T10:19:25;99260.16;;;-0.76;98.25
41102;BME280;26845;50.190;19.178;2023-12-04T10:21:52;99255.49;;;-0.59;98.34
41102;BME280;26845;50.190;19.178;2023-12-04T10:24:38;99252.29;;;-0.47;97.20
41102;BME280;26845;50.190;19.178;2023-12-04T10:27:12;99250.64;;;-0.46;97.18
41102;BME280;26845;50.190;19.178;2023-12-04T10:29:46;99249.14;;;-0.40;96.45
41102;BME280;26845;50.190;19.178;2023-12-04T10:32:13;99246.75;;;-0.35;95.91
41102;BME280;26845;50.190;19.178;2023-12-04T10:34:41;99240.79;;;-0.29;95.75
41102;BME280;26845;50.190;19.178;2023-12-04T10:37:09;99243.36;;;-0.22;96.14
41102;BME280;26845;50.190;19.178;2023-12-04T10:39:46;99235.44;;;-0.13;96.15
41102;BME280;26845;50.190;19.178;2023-12-04T10:42:12;99233.23;;;0.01;96.47
41102;BME280;26845;50.190;19.178;2023-12-04T10:44:48;99232.25;;;0.08;95.94
41102;BME280;26845;50.190;19.178;2023-12-04T10:47:14;99231.48;;;0.22;96.69
41102;BME280;26845;50.190;19.178;2023-12-04T10:49:42;99228.69;;;0.42;96.87
41102;BME280;26845;50.190;19.178;2023-12-04T10:52:08;99224.71;;;0.68;96.47
41102;BME280;26845;50.190;19.178;2023-12-04T10:54:34;99219.12;;;0.98;96.52
41102;BME280;26845;50.190;19.178;2023-12-04T10:57:01;99216.48;;;1.36;96.58
41102;BME280;26845;50.190;19.178;2023-12-04T10:59:32;99214.75;;;1.79;96.29
41102;BME280;26845;50.190;19.178;2023-12-04T11:02:05;99210.77;;;2.16;95.39
41102;BME280;26845;50.190;19.178;2023-12-04T11:04:36;99209.83;;;2.43;95.40
41102;BME280;26845;50.190;19.178;2023-12-04T11:07:03;99202.31;;;2.74;95.03
41102;BME280;26845;50.190;19.178;2023-12-04T11:09:34;99194.77;;;3.00;94.52
41102;BME280;26845;50.190;19.178;2023-12-04T11:12:05;99193.56;;;3.27;94.63
41102;BME280;26845;50.190;19.178;2023-12-04T11:14:42;99189.50;;;3.63;94.92
41102;BME280;26845;50.190;19.178;2023-12-04T11:17:13;99183.91;;;4.02;94.47
41102;BME280;26845;50.190;19.178;2023-12-04T11:22:12;99182.98;;;4.61;93.15
41102;BME280;26845;50.190;19.178;2023-12-04T11:24:39;99178.36;;;4.93;93.11
41102;BME280;26845;50.190;19.178;2023-12-04T11:27:06;99179.48;;;5.23;93.39
41102;BME280;26845;50.190;19.178;2023-12-04T11:29:33;99174.73;;;5.58;92.64
41102;BME280;26845;50.190;19.178;2023-12-04T11:31:59;99175.56;;;5.66;90.62
41102;BME280;26845;50.190;19.178;2023-12-04T11:34:25;99176.05;;;5.80;91.72
41102;BME280;26845;50.190;19.178;2023-12-04T11:36:52;99171.77;;;5.99;90.82
41102;BME280;26845;50.190;19.178;2023-12-04T11:39:19;99168.12;;;6.05;90.98
41102;BME280;26845;50.190;19.178;2023-12-04T11:41:45;99167.00;;;6.16;90.40
41102;BME280;26845;50.190;19.178;2023-12-04T11:44:13;99164.80;;;6.12;90.14
41102;BME280;26845;50.190;19.178;2023-12-04T11:47:03;99159.98;;;6.16;90.28
41102;BME280;26845;50.190;19.178;2023-12-04T11:49:30;99159.91;;;6.25;90.23
41102;BME280;26845;50.190;19.178;2023-12-04T11:52:02;99156.35;;;6.34;89.88
41102;BME280;26845;50.190;19.178;2023-12-04T11:54:59;99151.59;;;6.38;88.88
41102;BME280;26845;50.190;19.178;2023-12-04T11:57:26;99143.02;;;6.39;89.20
41102;BME280;26845;50.190;19.178;2023-12-04T12:03:13;99143.32;;;6.49;88.67
41102;BME280;26845;50.190;19.178;2023-12-04T12:05:40;99144.91;;;6.53;88.45
41102;BME280;26845;50.190;19.178;2023-12-04T12:08:08;99143.55;;;6.63;88.78
41102;BME280;26845;50.190;19.178;2023-12-04T12:10:35;99139.73;;;6.76;88.60
41102;BME280;26845;50.190;19.178;2023-12-04T12:13:01;99134.45;;;6.85;88.24
41102;BME280;26845;50.190;19.178;2023-12-04T12:15:27;99134.59;;;6.88;87.63
41102;BME280;26845;50.190;19.178;2023-12-04T12:17:54;99128.37;;;6.95;87.93
41102;BME280;26845;50.190;19.178;2023-12-04T12:20:21;99127.55;;;7.00;87.56
41102;BME280;26845;50.190;19.178;2023-12-04T12:22:48;99122.48;;;6.99;87.47
41102;BME280;26845;50.190;19.178;2023-12-04T12:25:15;99121.16;;;6.97;87.07
41102;BME280;26845;50.190;19.178;2023-12-04T12:27:41;99115.93;;;6.94;86.80
41102;BME280;26845;50.190;19.178;2023-12-04T12:30:08;99109.20;;;6.83;86.54
41102;BME280;26845;50.190;19.178;2023-12-04T12:32:34;99105.00;;;6.72;86.55
41102;BME280;26845;50.190;19.178;2023-12-04T12:35:01;99101.73;;;6.61;86.14
41102;BME280;26845;50.190;19.178;2023-12-04T12:37:27;99098.83;;;6.49;86.09
41102;BME280;26845;50.190;19.178;2023-12-04T12:39:54;99094.29;;;6.35;85.81
41102;BME280;26845;50.190;19.178;2023-12-04T12:42:28;99090.45;;;6.12;85.17
41102;BME280;26845;50.190;19.178;2023-12-04T12:44:55;99087.67;;;5.85;85.01
41102;BME280;26845;50.190;19.178;2023-12-04T12:47:24;99088.48;;;5.51;84.68
41102;BME280;26845;50.190;19.178;2023-12-04T12:49:50;99084.14;;;5.31;84.89